createdAt,value
2019-05-21T00:01:53.209Z,91.20
2019-05-21T00:04:28.339Z,91.10
2019-05-21T00:06:51.800Z,91.10
2019-05-21T00:09:20.198Z,91.30
2019-05-21T00:11:48.623Z,91.60
2019-05-21T00:14:17.040Z,91.30
2019-05-21T00:16:45.452Z,91.40
2019-05-21T00:19:13.878Z,91.40
2019-05-21T00:21:42.290Z,91.40
2019-05-21T00:24:10.719Z,91.40
2019-05-21T00:26:39.175Z,91.30
2019-05-21T00:29:44.355Z,91.20
2019-05-21T00:32:49.545Z,91.20
2019-05-21T00:36:13.174Z,91.20
2019-05-21T00:39:18.068Z,91.30
2019-05-21T00:42:04.878Z,91.30
2019-05-21T00:44:43.710Z,91.30
2019-05-21T00:47:12.990Z,91.30
2019-05-21T00:49:41.551Z,91.20
2019-05-21T00:52:10.274Z,91.10
2019-05-21T00:54:38.803Z,91.00
2019-05-21T00:57:07.210Z,90.90
2019-05-21T00:59:35.883Z,90.80
2019-05-21T01:02:04.275Z,90.70
2019-05-21T01:04:32.739Z,90.70
2019-05-21T01:07:01.161Z,90.60
2019-05-21T01:09:29.574Z,90.60
2019-05-21T01:11:58.012Z,90.60
2019-05-21T01:14:26.431Z,90.60
2019-05-21T01:16:54.927Z,90.70
2019-05-21T01:19:23.348Z,90.80
2019-05-21T01:21:51.886Z,90.90
2019-05-21T01:24:20.308Z,90.80
2019-05-21T01:26:48.740Z,90.70
2019-05-21T01:29:17.153Z,90.70
2019-05-21T01:31:45.577Z,90.70
2019-05-21T01:34:15.203Z,90.70
2019-05-21T01:36:43.621Z,91.00
2019-05-21T01:39:12.057Z,90.70
2019-05-21T01:41:40.784Z,90.50
2019-05-21T01:44:09.250Z,90.50
2019-05-21T01:46:37.687Z,90.40
2019-05-21T01:49:06.109Z,90.30
2019-05-21T01:51:34.546Z,90.30
2019-05-21T01:54:02.976Z,90.30
2019-05-21T01:56:31.396Z,90.30
2019-05-21T01:58:59.920Z,90.30
2019-05-21T02:01:28.370Z,90.30
2019-05-21T02:03:56.796Z,90.30
2019-05-21T02:06:25.377Z,90.30
2019-05-21T02:08:53.821Z,90.30
2019-05-21T02:11:22.248Z,90.20
2019-05-21T02:13:50.679Z,90.20
2019-05-21T02:16:19.106Z,90.20
2019-05-21T02:18:47.519Z,90.20
2019-05-21T02:21:16.268Z,90.20
2019-05-21T02:23:44.699Z,90.20
2019-05-21T02:26:13.115Z,90.30
2019-05-21T02:28:41.518Z,90.30
2019-05-21T02:31:10.024Z,90.20
2019-05-21T02:33:38.437Z,90.20
2019-05-21T02:36:06.852Z,90.20
2019-05-21T02:38:35.298Z,90.10
2019-05-21T02:41:03.757Z,90.10
2019-05-21T02:43:32.450Z,90.10
2019-05-21T02:46:00.860Z,90.10
2019-05-21T02:48:29.281Z,90.00
2019-05-21T02:50:57.707Z,90.10
2019-05-21T02:53:26.791Z,90.10
2019-05-21T02:55:55.204Z,90.10
2019-05-21T02:58:23.619Z,90.10
2019-05-21T03:00:58.022Z,90.20
2019-05-21T03:03:28.073Z,90.20
2019-05-21T03:06:12.468Z,90.20
2019-05-21T03:08:27.877Z,90.30
2019-05-21T03:10:56.285Z,90.20
2019-05-21T03:13:24.696Z,90.30
2019-05-21T03:15:53.113Z,90.20
2019-05-21T03:18:21.596Z,90.20
2019-05-21T03:20:50.033Z,90.30
2019-05-21T03:23:18.460Z,90.30
2019-05-21T03:25:46.938Z,90.30
2019-05-21T03:28:15.393Z,90.30
2019-05-21T03:30:43.806Z,90.40
2019-05-21T03:33:12.219Z,90.30
2019-05-21T03:35:40.654Z,90.40
2019-05-21T03:38:09.085Z,90.30
2019-05-21T03:40:37.823Z,90.40
2019-05-21T03:43:06.245Z,90.30
2019-05-21T03:45:34.671Z,90.40
2019-05-21T03:48:03.097Z,90.30
2019-05-21T03:50:31.501Z,90.30
2019-05-21T03:53:00.018Z,90.40
2019-05-21T03:55:28.484Z,90.30
2019-05-21T03:57:56.931Z,90.40
2019-05-21T04:00:25.348Z,90.30
2019-05-21T04:02:53.785Z,90.40
2019-05-21T04:05:24.307Z,90.40
2019-05-21T04:07:52.905Z,90.40
2019-05-21T04:10:22.156Z,90.40
2019-05-21T04:13:06.033Z,90.40
2019-05-21T04:15:37.092Z,90.40
2019-05-21T04:18:07.264Z,90.30
2019-05-21T04:20:36.631Z,90.30
2019-05-21T04:23:05.117Z,90.20
2019-05-21T04:25:33.537Z,90.30
2019-05-21T04:28:01.959Z,90.40
2019-05-21T04:30:30.446Z,90.50
2019-05-21T04:32:58.904Z,90.50
2019-05-21T04:35:27.302Z,90.40
2019-05-21T04:37:55.743Z,90.50
2019-05-21T04:40:24.251Z,90.40
2019-05-21T04:42:52.648Z,90.50
2019-05-21T04:45:21.064Z,90.80
2019-05-21T04:47:49.560Z,90.40
2019-05-21T04:50:17.974Z,90.40
2019-05-21T04:52:46.379Z,90.50
2019-05-21T04:55:14.883Z,90.50
2019-05-21T04:57:43.691Z,90.60
2019-05-21T05:00:12.274Z,90.60
2019-05-21T05:02:40.728Z,90.60
2019-05-21T05:05:09.484Z,90.60
2019-05-21T05:07:37.906Z,90.60
2019-05-21T05:10:06.951Z,90.50
2019-05-21T05:12:35.586Z,90.70
2019-05-21T05:15:05.645Z,90.70
2019-05-21T05:17:34.060Z,90.60
2019-05-21T05:20:02.506Z,90.60
2019-05-21T05:22:30.913Z,90.50
2019-05-21T05:24:59.569Z,90.50
2019-05-21T05:27:28.986Z,90.70
2019-05-21T05:29:57.626Z,90.60
2019-05-21T05:32:27.019Z,90.50
2019-05-21T05:34:55.613Z,90.50
2019-05-21T05:37:24.023Z,90.40
2019-05-21T05:39:52.438Z,90.40
2019-05-21T05:42:21.163Z,90.40
2019-05-21T05:44:49.585Z,90.30
2019-05-21T05:47:17.999Z,90.30
2019-05-21T05:49:48.201Z,90.20
2019-05-21T05:52:16.671Z,90.20
2019-05-21T05:54:45.077Z,90.20
2019-05-21T05:57:13.494Z,90.20
2019-05-21T05:59:41.907Z,90.20
2019-05-21T06:02:10.344Z,90.30
2019-05-21T06:04:38.782Z,90.20
2019-05-21T06:07:07.430Z,90.30
2019-05-21T06:09:35.834Z,90.40
2019-05-21T06:12:04.263Z,90.40
2019-05-21T06:14:32.682Z,90.40
2019-05-21T06:17:01.162Z,90.40
2019-05-21T06:19:29.567Z,90.40
2019-05-21T06:21:57.979Z,90.40
2019-05-21T06:24:26.862Z,90.30
2019-05-21T06:26:55.290Z,90.30
2019-05-21T06:29:23.705Z,90.30
2019-05-21T06:31:52.107Z,90.30
2019-05-21T06:34:20.536Z,90.20
2019-05-21T06:36:48.965Z,90.20
2019-05-21T06:39:17.711Z,90.30
2019-05-21T06:41:46.120Z,90.20
2019-05-21T06:44:14.903Z,90.20
2019-05-21T06:46:43.573Z,90.30
2019-05-21T06:49:11.994Z,90.30
2019-05-21T06:51:40.488Z,90.30
2019-05-21T06:54:08.901Z,90.30
2019-05-21T06:56:37.311Z,90.30
2019-05-21T06:59:05.791Z,90.20
2019-05-21T07:01:34.778Z,90.10
2019-05-21T07:04:03.199Z,90.20
2019-05-21T07:08:52.893Z,90.10
2019-05-21T07:11:21.386Z,90.20
2019-05-21T07:13:49.803Z,90.20
2019-05-21T07:16:18.217Z,90.20
2019-05-21T07:18:46.635Z,90.20
2019-05-21T07:21:15.055Z,90.30
2019-05-21T07:23:43.481Z,90.20
2019-05-21T07:26:11.961Z,90.20
2019-05-21T07:28:41.335Z,90.20
2019-05-21T07:31:10.397Z,90.20
2019-05-21T07:33:40.416Z,90.20
2019-05-21T07:36:10.850Z,90.20
2019-05-21T07:38:52.540Z,90.10
2019-05-21T07:41:09.390Z,90.10
2019-05-21T07:43:37.818Z,90.10
2019-05-21T07:46:06.228Z,90.10
2019-05-21T07:48:34.653Z,90.10
2019-05-21T07:51:04.815Z,90.10
2019-05-21T07:53:34.029Z,90.10
2019-05-21T07:56:03.266Z,90.10
2019-05-21T07:58:31.818Z,90.10
2019-05-21T08:01:01.576Z,90.10
2019-05-21T08:03:30.256Z,90.10
2019-05-21T08:05:58.757Z,90.00
2019-05-21T08:08:27.186Z,90.10
2019-05-21T08:10:56.517Z,90.10
2019-05-21T08:13:24.948Z,90.10
2019-05-21T08:15:54.695Z,90.10
2019-05-21T08:18:23.174Z,90.10
2019-05-21T08:20:51.595Z,90.10
2019-05-21T08:23:20.014Z,90.10
2019-05-21T08:25:48.511Z,90.10
2019-05-21T08:28:16.922Z,90.00
2019-05-21T08:30:45.332Z,90.00
2019-05-21T08:33:13.748Z,90.00
2019-05-21T08:35:42.154Z,90.00
2019-05-21T08:38:10.581Z,89.90
2019-05-21T08:40:39.590Z,90.00
2019-05-21T08:43:08.009Z,89.80
2019-05-21T08:45:36.402Z,89.60
2019-05-21T08:48:04.919Z,89.70
2019-05-21T08:50:34.218Z,89.80
2019-05-21T08:53:02.702Z,89.80
2019-05-21T08:55:31.104Z,89.80
2019-05-21T08:58:07.005Z,89.90
2019-05-21T09:00:30.607Z,89.70
2019-05-21T09:02:59.288Z,89.60
2019-05-21T09:05:27.978Z,89.50
2019-05-21T09:07:56.392Z,89.60
2019-05-21T09:10:24.826Z,89.60
2019-05-21T09:12:53.254Z,89.40
2019-05-21T09:15:23.517Z,89.40
2019-05-21T09:17:51.931Z,89.30
2019-05-21T09:20:20.696Z,89.10
2019-05-21T09:22:49.112Z,88.90
2019-05-21T09:25:21.570Z,88.80
2019-05-21T09:27:47.651Z,88.50
2019-05-21T09:30:16.916Z,88.30
2019-05-21T09:32:45.320Z,88.20
2019-05-21T09:35:15.542Z,88.30
2019-05-21T09:37:43.951Z,88.30
2019-05-21T09:40:13.207Z,88.30
2019-05-21T09:42:45.089Z,88.20
2019-05-21T09:45:12.465Z,88.30
2019-05-21T09:47:40.954Z,88.30
2019-05-21T09:50:10.308Z,87.90
2019-05-21T09:52:38.896Z,87.70
2019-05-21T09:55:07.750Z,87.50
2019-05-21T09:57:38.091Z,87.50
2019-05-21T10:00:19.676Z,87.50
2019-05-21T10:02:48.097Z,87.30
2019-05-21T10:05:16.844Z,87.20
2019-05-21T10:07:45.280Z,87.30
2019-05-21T10:10:13.974Z,87.30
2019-05-21T10:12:42.458Z,87.30
2019-05-21T10:15:11.006Z,87.10
2019-05-21T10:17:39.433Z,87.00
2019-05-21T10:20:07.993Z,86.70
2019-05-21T10:22:37.926Z,86.30
2019-05-21T10:25:06.697Z,86.80
2019-05-21T10:27:35.193Z,86.10
2019-05-21T10:30:05.871Z,86.00
2019-05-21T10:32:34.288Z,86.10
2019-05-21T10:35:03.897Z,86.20
2019-05-21T10:37:32.844Z,86.20
2019-05-21T10:40:03.149Z,86.20
2019-05-21T10:42:31.686Z,86.20
2019-05-21T10:45:00.166Z,85.80
2019-05-21T10:47:28.585Z,85.50
2019-05-21T10:49:57.003Z,85.30
2019-05-21T10:52:25.416Z,85.50
2019-05-21T10:54:53.832Z,85.70
2019-05-21T10:57:22.292Z,85.40
2019-05-21T10:59:50.727Z,85.10
2019-05-21T11:02:20.779Z,85.10
2019-05-21T11:04:50.835Z,85.10
2019-05-21T11:07:19.600Z,84.50
2019-05-21T11:09:48.036Z,84.40
2019-05-21T11:12:16.584Z,84.30
2019-05-21T11:14:45.033Z,84.10
2019-05-21T11:17:13.491Z,84.20
2019-05-21T11:19:41.899Z,84.10
2019-05-21T11:22:10.334Z,84.00
2019-05-21T11:24:38.743Z,84.00
2019-05-21T11:27:07.241Z,83.90
2019-05-21T11:29:35.730Z,83.70
2019-05-21T11:32:04.217Z,83.10
2019-05-21T11:34:32.627Z,83.10
2019-05-21T11:37:01.066Z,82.90
2019-05-21T11:39:29.470Z,82.80
2019-05-21T11:41:57.961Z,82.70
2019-05-21T11:44:26.367Z,82.70
2019-05-21T11:46:55.091Z,82.40
2019-05-21T11:49:23.491Z,82.40
2019-05-21T11:51:51.908Z,82.40
2019-05-21T11:54:20.317Z,82.10
2019-05-21T11:56:48.727Z,81.80
2019-05-21T11:59:17.177Z,82.30
2019-05-21T12:01:45.570Z,82.20
2019-05-21T12:04:13.996Z,82.50
2019-05-21T12:06:42.463Z,82.70
2019-05-21T12:09:10.872Z,82.80
2019-05-21T12:11:39.327Z,82.70
2019-05-21T12:14:07.797Z,83.10
2019-05-21T12:16:36.295Z,83.10
2019-05-21T12:19:08.032Z,83.20
2019-05-21T12:21:35.107Z,83.10
2019-05-21T12:24:03.523Z,82.90
2019-05-21T12:26:31.946Z,82.50
2019-05-21T12:29:00.382Z,82.40
2019-05-21T12:31:28.800Z,82.40
2019-05-21T12:33:57.212Z,82.30
2019-05-21T12:36:25.991Z,82.70
2019-05-21T12:38:54.544Z,82.90
2019-05-21T12:41:23.238Z,83.10
2019-05-21T12:43:51.666Z,83.10
2019-05-21T12:46:20.095Z,83.00
2019-05-21T12:48:48.496Z,83.10
2019-05-21T12:51:16.901Z,83.20
2019-05-21T12:53:45.325Z,83.00
2019-05-21T12:56:13.727Z,82.90
2019-05-21T12:58:42.144Z,82.50
2019-05-21T13:01:10.577Z,82.60
2019-05-21T13:03:39.308Z,82.40
2019-05-21T13:06:12.002Z,82.20
2019-05-21T13:08:40.396Z,82.20
2019-05-21T13:11:08.884Z,82.00
2019-05-21T13:13:37.291Z,81.90
2019-05-21T13:16:05.716Z,81.90
2019-05-21T13:18:34.126Z,82.10
2019-05-21T13:21:02.796Z,82.30
2019-05-21T13:23:31.213Z,82.30
2019-05-21T13:25:59.635Z,82.20
2019-05-21T13:28:28.045Z,82.10
2019-05-21T13:30:56.458Z,81.80
2019-05-21T13:33:24.875Z,81.60
2019-05-21T13:35:53.277Z,81.50
2019-05-21T13:38:21.693Z,81.40
2019-05-21T13:40:51.377Z,81.20
2019-05-21T13:43:21.418Z,81.00
2019-05-21T13:45:50.156Z,80.90
2019-05-21T13:48:18.577Z,80.70
2019-05-21T13:50:47.003Z,80.50
2019-05-21T13:53:15.402Z,80.50
2019-05-21T13:55:44.594Z,80.40
2019-05-21T13:58:13.072Z,80.20
2019-05-21T14:00:43.116Z,80.50
2019-05-21T14:03:12.369Z,80.70
2019-05-21T14:05:40.780Z,80.80
2019-05-21T14:08:09.270Z,80.80
2019-05-21T14:10:38.105Z,81.00
2019-05-21T14:13:06.535Z,81.30
2019-05-21T14:15:35.037Z,81.30
2019-05-21T14:18:03.460Z,81.40
2019-05-21T14:20:31.889Z,81.30
2019-05-21T14:23:00.291Z,81.30
2019-05-21T14:25:28.711Z,81.10
2019-05-21T14:27:57.207Z,81.20
2019-05-21T14:30:25.615Z,81.10
2019-05-21T14:32:54.040Z,81.00
2019-05-21T14:35:22.461Z,81.00
2019-05-21T14:37:50.875Z,81.00
2019-05-21T14:40:31.250Z,80.60
2019-05-21T14:42:59.970Z,80.40
2019-05-21T14:45:21.305Z,80.30
2019-05-21T14:47:49.717Z,80.30
2019-05-21T14:50:18.629Z,80.30
2019-05-21T14:52:51.811Z,80.20
2019-05-21T14:55:17.497Z,80.10
2019-05-21T14:57:46.013Z,80.70
2019-05-21T15:00:25.529Z,80.10
2019-05-21T15:02:54.003Z,80.10
2019-05-21T15:05:22.757Z,80.00
2019-05-21T15:07:51.146Z,79.80
2019-05-21T15:10:19.561Z,79.90
2019-05-21T15:12:48.289Z,79.90
2019-05-21T15:15:17.126Z,79.80
2019-05-21T15:17:45.614Z,80.10
2019-05-21T15:20:31.527Z,80.30
2019-05-21T15:22:59.942Z,80.10
2019-05-21T15:25:28.359Z,80.30
2019-05-21T15:27:56.779Z,80.30
2019-05-21T15:30:25.490Z,80.30
2019-05-21T15:32:53.967Z,80.30
2019-05-21T15:35:22.389Z,80.20
2019-05-21T15:37:50.808Z,80.30
2019-05-21T15:40:19.452Z,80.30
2019-05-21T15:42:52.440Z,80.20
2019-05-21T15:45:18.448Z,79.90
2019-05-21T15:47:46.878Z,79.60
2019-05-21T15:50:15.547Z,79.60
2019-05-21T15:52:43.972Z,79.90
2019-05-21T15:55:12.659Z,80.00
2019-05-21T15:57:41.137Z,80.10
2019-05-21T16:00:11.544Z,80.20
2019-05-21T16:02:39.964Z,80.60
2019-05-21T16:05:09.518Z,80.80
2019-05-21T16:07:37.953Z,80.90
2019-05-21T16:10:07.100Z,80.90
2019-05-21T16:12:35.527Z,80.80
2019-05-21T16:15:05.992Z,80.70
2019-05-21T16:17:34.754Z,80.50
2019-05-21T16:20:04.647Z,80.30
2019-05-21T16:22:35.181Z,80.20
2019-05-21T16:25:05.433Z,80.50
2019-05-21T16:27:33.922Z,80.40
2019-05-21T16:30:02.348Z,80.70
2019-05-21T16:32:30.756Z,80.70
2019-05-21T16:34:59.231Z,81.60
2019-05-21T16:37:27.699Z,80.70
2019-05-21T16:39:56.120Z,80.90
2019-05-21T16:42:24.528Z,81.20
2019-05-21T16:44:52.963Z,81.40
2019-05-21T16:47:21.427Z,81.50
2019-05-21T16:49:49.919Z,81.90
2019-05-21T16:52:18.340Z,82.20
2019-05-21T16:54:46.976Z,82.40
2019-05-21T16:57:15.382Z,82.50
2019-05-21T16:59:43.799Z,82.70
2019-05-21T17:02:12.229Z,82.60
2019-05-21T17:04:40.631Z,82.90
2019-05-21T17:07:09.064Z,83.10
2019-05-21T17:09:37.480Z,83.40
2019-05-21T17:12:06.323Z,83.70
2019-05-21T17:14:34.742Z,83.80
2019-05-21T17:17:03.166Z,84.10
2019-05-21T17:19:31.576Z,84.30
2019-05-21T17:21:59.989Z,84.40
2019-05-21T17:24:28.520Z,84.50
2019-05-21T17:26:57.008Z,84.50
2019-05-21T17:29:25.422Z,84.70
2019-05-21T17:31:53.840Z,84.80
2019-05-21T17:34:22.282Z,84.90
2019-05-21T17:36:50.694Z,84.90
2019-05-21T17:39:19.120Z,85.00
2019-05-21T17:41:47.515Z,85.20
2019-05-21T17:44:15.926Z,85.40
2019-05-21T17:46:44.350Z,85.60
2019-05-21T17:49:12.806Z,85.80
2019-05-21T17:51:41.221Z,85.90
2019-05-21T17:54:09.676Z,86.00
2019-05-21T17:56:38.343Z,86.10
2019-05-21T17:59:06.752Z,86.30
2019-05-21T18:01:35.253Z,86.50
2019-05-21T18:04:03.963Z,86.70
2019-05-21T18:06:32.562Z,87.00
2019-05-21T18:09:01.042Z,87.00
2019-05-21T18:11:29.670Z,87.10
2019-05-21T18:13:58.087Z,87.30
2019-05-21T18:16:26.681Z,87.40
2019-05-21T18:18:55.095Z,87.80
2019-05-21T18:21:24.875Z,87.70
2019-05-21T18:23:53.287Z,88.10
2019-05-21T18:26:22.184Z,88.20
2019-05-21T18:28:50.673Z,88.20
2019-05-21T18:31:19.366Z,88.50
2019-05-21T18:33:47.959Z,88.50
2019-05-21T18:36:16.379Z,88.50
2019-05-21T18:38:44.859Z,88.60
2019-05-21T18:41:13.363Z,88.90
2019-05-21T18:43:41.895Z,88.80
2019-05-21T18:46:10.326Z,88.70
2019-05-21T18:48:38.736Z,88.80
2019-05-21T18:51:07.161Z,88.90
2019-05-21T18:53:35.882Z,88.90
2019-05-21T18:56:04.580Z,89.00
2019-05-21T18:58:32.994Z,89.20
2019-05-21T19:01:01.427Z,89.20
2019-05-21T19:03:29.843Z,89.20
2019-05-21T19:05:58.274Z,89.20
2019-05-21T19:08:26.784Z,89.10
2019-05-21T19:10:55.212Z,89.10
2019-05-21T19:13:23.626Z,89.20
2019-05-21T19:15:52.078Z,89.20
2019-05-21T19:18:20.557Z,89.20
2019-05-21T19:20:50.137Z,89.20
2019-05-21T19:23:18.732Z,89.60
2019-05-21T19:25:47.149Z,89.50
2019-05-21T19:28:15.550Z,89.80
2019-05-21T19:30:43.960Z,90.00
2019-05-21T19:33:12.441Z,89.90
2019-05-21T19:35:41.097Z,90.10
2019-05-21T19:38:09.814Z,90.00
2019-05-21T19:40:38.231Z,90.10
2019-05-21T19:43:06.651Z,90.20
2019-05-21T19:45:35.335Z,90.20
2019-05-21T19:48:03.744Z,90.30
2019-05-21T19:50:32.152Z,90.20
2019-05-21T19:53:00.816Z,90.10
2019-05-21T19:55:29.720Z,90.20
2019-05-21T19:57:58.216Z,90.30
2019-05-21T20:00:28.285Z,90.20
2019-05-21T20:02:56.755Z,90.30
2019-05-21T20:05:25.450Z,90.30
2019-05-21T20:07:54.130Z,90.30
2019-05-21T20:10:22.723Z,90.20
2019-05-21T20:12:51.206Z,90.30
2019-05-21T20:15:20.083Z,90.20
2019-05-21T20:17:51.070Z,90.30
2019-05-21T20:20:22.794Z,90.20
2019-05-21T20:22:51.304Z,90.10
2019-05-21T20:25:20.729Z,90.20
2019-05-21T20:27:49.197Z,90.20
2019-05-21T20:30:19.325Z,90.20
2019-05-21T20:32:49.139Z,90.30
2019-05-21T20:35:18.420Z,90.30
2019-05-21T20:37:48.748Z,90.40
2019-05-21T20:40:18.403Z,90.40
2019-05-21T20:42:47.497Z,90.40
2019-05-21T20:45:16.844Z,90.60
2019-05-21T20:47:45.549Z,90.50
2019-05-21T20:50:17.237Z,90.40
2019-05-21T20:52:46.678Z,90.50
2019-05-21T20:55:17.131Z,90.40
2019-05-21T20:57:45.725Z,90.30
2019-05-21T21:00:16.700Z,90.20
2019-05-21T21:02:45.405Z,90.20
2019-05-21T21:05:14.517Z,90.30
2019-05-21T21:07:43.080Z,90.30
2019-05-21T21:10:12.510Z,90.30
2019-05-21T21:12:42.010Z,90.30
2019-05-21T21:15:11.428Z,90.30
2019-05-21T21:17:40.024Z,90.30
2019-05-21T21:20:08.889Z,90.30
2019-05-21T21:22:37.382Z,90.20
2019-05-21T21:25:06.710Z,90.30
2019-05-21T21:27:36.805Z,90.20
2019-05-21T21:30:06.846Z,90.20
2019-05-21T21:32:35.563Z,90.20
2019-05-21T21:35:05.674Z,90.20
2019-05-21T21:37:34.471Z,90.20
2019-05-21T21:40:05.198Z,90.20
2019-05-21T21:42:33.625Z,90.10
2019-05-21T21:45:02.102Z,90.20
2019-05-21T21:47:31.068Z,90.10
2019-05-21T21:50:00.929Z,90.10
2019-05-21T21:52:30.589Z,90.10
2019-05-21T21:54:59.814Z,90.10
2019-05-21T21:57:28.238Z,90.00
2019-05-21T21:59:56.635Z,90.00
2019-05-21T22:02:28.432Z,89.90
2019-05-21T22:04:57.445Z,89.90
2019-05-21T22:07:26.467Z,89.80
2019-05-21T22:09:55.474Z,89.80
2019-05-21T22:12:25.024Z,89.80
2019-05-21T22:15:00.836Z,89.90
2019-05-21T22:17:29.299Z,90.00
2019-05-21T22:19:58.470Z,89.80
2019-05-21T22:22:27.330Z,89.60
2019-05-21T22:24:55.828Z,89.50
2019-05-21T22:27:24.423Z,89.10
2019-05-21T22:29:52.863Z,89.30
2019-05-21T22:32:22.011Z,89.40
2019-05-21T22:34:50.427Z,89.40
2019-05-21T22:37:20.490Z,89.20
2019-05-21T22:39:48.975Z,89.10
2019-05-21T22:42:17.755Z,89.10
2019-05-21T22:44:46.944Z,89.00
2019-05-21T22:47:15.604Z,89.10
2019-05-21T22:49:44.023Z,89.30
2019-05-21T22:52:12.804Z,89.50
2019-05-21T22:54:41.639Z,89.60
2019-05-21T22:57:10.060Z,89.50
2019-05-21T22:59:38.493Z,89.40
2019-05-21T23:02:08.716Z,89.20
2019-05-21T23:04:37.303Z,89.00
2019-05-21T23:07:06.377Z,88.70
2019-05-21T23:09:34.873Z,88.70
2019-05-21T23:12:03.314Z,89.00
2019-05-21T23:14:31.733Z,88.50
2019-05-21T23:17:00.142Z,88.30
2019-05-21T23:19:29.410Z,88.20
2019-05-21T23:21:59.898Z,88.00
2019-05-21T23:24:29.641Z,88.40
2019-05-21T23:26:58.238Z,87.70
2019-05-21T23:29:26.704Z,87.60
2019-05-21T23:31:55.110Z,87.30
2019-05-21T23:34:23.698Z,87.00
2019-05-21T23:36:53.337Z,86.80
2019-05-21T23:39:23.092Z,86.60
2019-05-21T23:41:51.573Z,86.60
2019-05-21T23:44:20.503Z,86.60
2019-05-21T23:46:48.916Z,86.30
2019-05-21T23:49:17.683Z,86.30
2019-05-21T23:51:46.148Z,86.30
2019-05-21T23:54:15.038Z,86.00
2019-05-21T23:56:43.458Z,85.90
2019-05-21T23:59:12.194Z,85.90
